createdAt,value
2018-11-21T00:00:11.695Z,13.90
2018-11-21T00:02:40.375Z,13.77
2018-11-21T00:05:09.070Z,14.00
2018-11-21T00:07:38.102Z,15.37
2018-11-21T00:10:09.054Z,14.43
2018-11-21T00:12:38.544Z,14.83
2018-11-21T00:15:09.093Z,13.47
2018-11-21T00:17:37.967Z,15.23
2018-11-21T00:20:08.119Z,13.37
2018-11-21T00:22:36.822Z,19.37
2018-11-21T00:25:05.528Z,16.07
2018-11-21T00:27:34.198Z,13.93
2018-11-21T00:30:03.343Z,14.60
2018-11-21T00:32:32.066Z,14.13
2018-11-21T00:35:00.777Z,14.60
2018-11-21T00:37:29.534Z,13.70
2018-11-21T00:39:58.196Z,14.10
2018-11-21T00:42:26.900Z,15.27
2018-11-21T00:44:55.600Z,16.20
2018-11-21T00:47:24.287Z,13.67
2018-11-21T00:49:52.947Z,14.07
2018-11-21T00:52:22.001Z,14.03
2018-11-21T00:54:50.721Z,14.93
2018-11-21T00:57:19.424Z,15.43
2018-11-21T00:59:48.127Z,12.97
2018-11-21T01:02:16.888Z,14.13
2018-11-21T01:04:45.490Z,14.80
2018-11-21T01:07:14.504Z,16.57
2018-11-21T01:09:43.191Z,15.30
2018-11-21T01:12:11.903Z,14.83
2018-11-21T01:14:40.621Z,18.70
2018-11-21T01:17:09.332Z,18.37
2018-11-21T01:19:38.044Z,13.63
2018-11-21T01:22:06.760Z,14.53
2018-11-21T01:24:35.472Z,14.57
2018-11-21T01:27:04.186Z,14.80
2018-11-21T01:29:32.893Z,15.83
2018-11-21T01:32:01.591Z,17.07
2018-11-21T01:34:30.706Z,18.00
2018-11-21T01:36:59.407Z,15.53
2018-11-21T01:39:28.096Z,20.50
2018-11-21T01:41:56.983Z,20.73
2018-11-21T01:44:26.086Z,16.30
2018-11-21T01:46:54.749Z,16.47
2018-11-21T01:49:23.467Z,17.90
2018-11-21T01:51:52.153Z,18.23
2018-11-21T01:54:20.872Z,15.80
2018-11-21T01:56:49.537Z,16.10
2018-11-21T01:59:18.229Z,17.73
2018-11-21T02:01:46.922Z,16.07
2018-11-21T02:04:15.641Z,16.10
2018-11-21T02:06:44.325Z,16.67
2018-11-21T02:09:13.447Z,20.80
2018-11-21T02:11:42.111Z,17.83
2018-11-21T02:14:10.797Z,19.73
2018-11-21T02:16:39.499Z,17.57
2018-11-21T02:19:08.169Z,19.23
2018-11-21T02:21:36.938Z,15.97
2018-11-21T02:24:05.506Z,19.33
2018-11-21T02:26:34.204Z,17.50
2018-11-21T02:29:02.887Z,19.13
2018-11-21T02:31:31.559Z,17.20
2018-11-21T02:34:00.228Z,16.73
2018-11-21T02:36:28.941Z,17.83
2018-11-21T02:38:57.628Z,16.33
2018-11-21T02:41:26.338Z,19.13
2018-11-21T02:43:55.043Z,18.50
2018-11-21T02:46:23.774Z,17.87
2018-11-21T02:48:52.479Z,16.83
2018-11-21T02:51:21.184Z,18.23
2018-11-21T02:53:49.881Z,18.67
2018-11-21T02:56:18.554Z,21.67
2018-11-21T02:58:47.245Z,20.10
2018-11-21T03:01:15.938Z,19.53
2018-11-21T03:03:44.664Z,18.77
2018-11-21T03:06:13.361Z,19.43
2018-11-21T03:08:42.079Z,19.37
2018-11-21T03:11:10.782Z,20.40
2018-11-21T03:13:39.731Z,21.20
2018-11-21T03:16:08.416Z,20.10
2018-11-21T03:18:37.125Z,21.43
2018-11-21T03:21:05.787Z,20.70
2018-11-21T03:23:34.506Z,17.77
2018-11-21T03:26:03.183Z,19.27
2018-11-21T03:28:31.865Z,20.17
2018-11-21T03:31:00.586Z,21.00
2018-11-21T03:33:29.281Z,20.67
2018-11-21T03:35:57.952Z,19.37
2018-11-21T03:38:26.638Z,20.30
2018-11-21T03:40:55.345Z,20.20
2018-11-21T03:43:24.025Z,18.93
2018-11-21T03:45:52.732Z,20.37
2018-11-21T03:48:21.415Z,24.70
2018-11-21T03:50:50.125Z,21.53
2018-11-21T03:53:18.813Z,22.80
2018-11-21T03:55:47.527Z,22.20
2018-11-21T03:58:16.202Z,22.13
2018-11-21T04:00:44.893Z,28.50
2018-11-21T04:03:13.595Z,24.07
2018-11-21T04:05:42.607Z,22.37
2018-11-21T04:08:11.327Z,20.30
2018-11-21T04:10:40.009Z,23.80
2018-11-21T04:13:08.724Z,27.77
2018-11-21T04:15:37.411Z,33.47
2018-11-21T04:18:06.318Z,24.30
2018-11-21T04:20:35.022Z,22.20
2018-11-21T04:23:03.752Z,23.17
2018-11-21T04:25:32.441Z,22.37
2018-11-21T04:28:01.131Z,21.80
2018-11-21T04:30:29.875Z,21.60
2018-11-21T04:32:58.569Z,22.80
2018-11-21T04:35:27.286Z,22.10
2018-11-21T04:37:55.972Z,22.20
2018-11-21T04:40:25.035Z,23.30
2018-11-21T04:42:53.705Z,23.20
2018-11-21T04:45:22.405Z,22.80
2018-11-21T04:47:51.097Z,23.20
2018-11-21T04:50:19.823Z,23.13
2018-11-21T04:52:48.500Z,21.20
2018-11-21T04:55:17.190Z,24.17
2018-11-21T04:57:46.187Z,25.33
2018-11-21T05:00:15.200Z,24.03
2018-11-21T05:02:43.880Z,22.03
2018-11-21T05:05:12.637Z,21.60
2018-11-21T05:07:42.577Z,21.40
2018-11-21T05:10:11.256Z,23.67
2018-11-21T05:12:39.975Z,25.17
2018-11-21T05:15:08.955Z,19.77
2018-11-21T05:17:37.849Z,22.77
2018-11-21T05:20:06.626Z,21.53
2018-11-21T05:22:35.237Z,28.70
2018-11-21T05:25:04.151Z,27.27
2018-11-21T05:27:32.847Z,22.93
2018-11-21T05:30:01.552Z,26.83
2018-11-21T05:32:30.257Z,24.07
2018-11-21T05:34:58.960Z,26.83
2018-11-21T05:37:27.646Z,26.33
2018-11-21T05:39:56.328Z,24.90
2018-11-21T05:42:25.026Z,26.77
2018-11-21T05:44:54.047Z,27.67
2018-11-21T05:47:22.731Z,27.10
2018-11-21T05:49:51.428Z,30.20
2018-11-21T05:52:20.117Z,25.03
2018-11-21T05:54:48.846Z,30.80
2018-11-21T05:57:17.511Z,28.13
2018-11-21T05:59:46.223Z,27.77
2018-11-21T06:02:14.912Z,27.70
2018-11-21T06:04:43.624Z,24.10
2018-11-21T06:07:12.370Z,25.73
2018-11-21T06:09:41.357Z,26.93
2018-11-21T06:12:10.116Z,25.93
2018-11-21T06:14:38.796Z,30.57
2018-11-21T06:17:07.537Z,27.80
2018-11-21T06:19:36.227Z,27.73
2018-11-21T06:22:05.154Z,31.10
2018-11-21T06:24:33.838Z,30.60
2018-11-21T06:27:03.851Z,27.20
2018-11-21T06:29:32.994Z,28.43
2018-11-21T06:32:02.499Z,27.47
2018-11-21T06:34:32.824Z,28.53
2018-11-21T06:36:59.848Z,28.50
2018-11-21T06:39:28.528Z,25.50
2018-11-21T06:41:57.242Z,26.73
2018-11-21T06:44:26.069Z,26.33
2018-11-21T06:46:54.680Z,30.73
2018-11-21T06:49:23.369Z,24.70
2018-11-21T06:51:52.070Z,35.63
2018-11-21T06:54:20.742Z,29.83
2018-11-21T06:56:49.452Z,26.90
2018-11-21T06:59:18.173Z,29.20
2018-11-21T07:01:46.845Z,27.87
2018-11-21T07:04:15.578Z,27.40
2018-11-21T07:06:44.276Z,34.40
2018-11-21T07:09:12.967Z,25.17
2018-11-21T07:11:41.668Z,27.40
2018-11-21T07:14:10.389Z,30.63
2018-11-21T07:16:39.883Z,27.63
2018-11-21T07:19:08.584Z,28.40
2018-11-21T07:21:37.527Z,28.50
2018-11-21T07:24:06.992Z,26.60
2018-11-21T07:26:35.688Z,30.57
2018-11-21T07:29:04.773Z,26.37
2018-11-21T07:31:33.669Z,25.40
2018-11-21T07:34:02.353Z,28.03
2018-11-21T07:36:31.404Z,33.80
2018-11-21T07:39:00.120Z,31.43
2018-11-21T07:41:28.829Z,28.33
2018-11-21T07:43:57.894Z,26.90
2018-11-21T07:46:26.608Z,26.37
2018-11-21T07:48:55.265Z,28.33
2018-11-21T07:51:23.964Z,28.57
2018-11-21T07:53:52.640Z,26.57
2018-11-21T07:57:09.318Z,28.20
2018-11-21T07:59:38.076Z,23.90
2018-11-21T08:02:14.657Z,25.90
2018-11-21T08:04:47.373Z,27.23
2018-11-21T08:07:33.456Z,28.50
2018-11-21T08:10:27.650Z,27.60
2018-11-21T08:13:14.136Z,26.30
2018-11-21T08:16:00.748Z,26.17
2018-11-21T08:18:40.519Z,26.17
2018-11-21T08:21:17.568Z,25.10
2018-11-21T08:23:55.802Z,29.37
2018-11-21T08:26:37.368Z,26.00
2018-11-21T08:29:06.117Z,25.40
2018-11-21T08:31:34.847Z,20.07
2018-11-21T08:34:03.523Z,25.80
2018-11-21T08:36:32.940Z,26.23
2018-11-21T08:39:01.741Z,27.50
2018-11-21T08:41:30.453Z,24.00
2018-11-21T08:43:59.180Z,27.30
2018-11-21T08:46:27.836Z,25.50
2018-11-21T08:48:56.522Z,26.07
2018-11-21T08:51:25.196Z,25.87
2018-11-21T08:53:53.885Z,24.90
2018-11-21T08:56:22.577Z,26.40
2018-11-21T08:58:51.339Z,23.50
2018-11-21T09:01:20.332Z,25.13
2018-11-21T09:03:48.995Z,25.80
2018-11-21T09:06:17.689Z,25.40
2018-11-21T09:08:46.468Z,24.73
2018-11-21T09:11:15.078Z,26.67
2018-11-21T09:13:43.831Z,26.50
2018-11-21T09:16:12.512Z,29.87
2018-11-21T09:18:41.208Z,24.23
2018-11-21T09:21:09.875Z,25.00
2018-11-21T09:23:38.582Z,26.40
2018-11-21T09:26:07.573Z,28.63
2018-11-21T09:28:36.368Z,30.93
2018-11-21T09:31:05.338Z,23.90
2018-11-21T09:33:34.013Z,25.40
2018-11-21T09:36:02.688Z,23.40
2018-11-21T09:38:31.394Z,26.60
2018-11-21T09:41:00.078Z,30.53
2018-11-21T09:43:29.158Z,28.10
2018-11-21T09:45:57.850Z,31.83
2018-11-21T09:48:26.526Z,24.97
2018-11-21T09:50:55.201Z,24.53
2018-11-21T09:53:23.893Z,30.07
2018-11-21T09:55:52.584Z,26.23
2018-11-21T09:58:21.244Z,27.30
2018-11-21T10:01:26.737Z,25.13
2018-11-21T10:03:58.853Z,29.03
2018-11-21T10:06:26.013Z,24.83
2018-11-21T10:08:56.587Z,30.50
2018-11-21T10:11:25.282Z,26.73
2018-11-21T10:13:53.935Z,26.47
2018-11-21T10:16:22.954Z,32.00
2018-11-21T10:18:53.285Z,27.70
2018-11-21T10:21:23.954Z,25.47
2018-11-21T10:23:52.614Z,24.47
2018-11-21T10:26:21.313Z,26.47
2018-11-21T10:28:51.218Z,25.90
2018-11-21T10:31:19.892Z,25.67
2018-11-21T10:33:48.621Z,30.70
2018-11-21T10:36:58.157Z,27.23
2018-11-21T10:39:28.062Z,28.60
2018-11-21T10:41:58.042Z,29.13
2018-11-21T10:44:27.953Z,25.90
2018-11-21T10:46:57.849Z,29.13
2018-11-21T10:49:27.786Z,27.83
2018-11-21T10:51:57.679Z,27.17
2018-11-21T10:54:27.592Z,21.20
2018-11-21T10:56:57.459Z,28.03
2018-11-21T10:59:27.369Z,31.63
2018-11-21T11:02:15.111Z,24.00
2018-11-21T11:05:01.959Z,26.60
2018-11-21T11:07:54.152Z,24.93
2018-11-21T11:10:37.551Z,25.10
2018-11-21T11:13:23.831Z,26.40
2018-11-21T11:16:06.262Z,27.00
2018-11-21T11:18:54.347Z,29.50
2018-11-21T11:21:54.623Z,30.93
2018-11-21T11:24:41.801Z,25.97
2018-11-21T11:27:34.193Z,28.90
2018-11-21T11:30:25.958Z,23.53
2018-11-21T11:33:23.686Z,28.23
2018-11-21T11:36:11.546Z,22.77
2018-11-21T11:38:58.811Z,27.87
2018-11-21T11:41:55.563Z,24.27
2018-11-21T11:44:45.086Z,23.90
2018-11-21T11:47:33.791Z,22.17
2018-11-21T11:50:22.722Z,32.07
2018-11-21T11:53:01.979Z,26.63
2018-11-21T11:56:03.583Z,24.43
2018-11-21T11:58:47.613Z,27.67
2018-11-21T12:01:38.522Z,26.83
2018-11-21T12:04:30.366Z,26.30
2018-11-21T12:07:22.031Z,25.87
2018-11-21T12:10:13.440Z,23.70
2018-11-21T12:13:02.244Z,25.57
2018-11-21T12:15:45.487Z,25.60
2018-11-21T12:18:32.875Z,26.73
2018-11-21T12:21:30.796Z,25.60
2018-11-21T12:24:18.147Z,27.33
2018-11-21T12:27:03.151Z,26.10
2018-11-21T12:29:57.848Z,24.03
2018-11-21T12:32:45.147Z,27.30
2018-11-21T12:35:32.439Z,26.47
2018-11-21T12:38:30.274Z,29.87
2018-11-21T12:41:19.037Z,24.27
2018-11-21T12:44:10.390Z,32.07
2018-11-21T12:47:02.240Z,26.50
2018-11-21T12:49:39.854Z,26.23
2018-11-21T12:52:27.115Z,23.90
2018-11-21T12:55:14.724Z,26.30
2018-11-21T12:58:07.030Z,26.70
2018-11-21T13:01:14.593Z,26.03
2018-11-21T13:04:03.028Z,26.10
2018-11-21T13:06:42.839Z,26.37
2018-11-21T13:09:21.851Z,30.40
2018-11-21T13:12:16.473Z,26.73
2018-11-21T13:15:00.411Z,25.17
2018-11-21T13:17:49.111Z,29.00
2018-11-21T13:20:35.575Z,30.53
2018-11-21T13:23:21.044Z,27.30
2018-11-21T13:26:09.745Z,30.10
2018-11-21T13:29:07.152Z,24.87
2018-11-21T13:32:02.144Z,30.17
2018-11-21T13:35:05.858Z,32.23
2018-11-21T13:37:58.510Z,23.53
2018-11-21T13:40:45.839Z,29.57
2018-11-21T13:43:37.948Z,25.50
2018-11-21T13:46:18.236Z,25.07
2018-11-21T13:49:01.352Z,34.10
2018-11-21T13:51:52.760Z,28.60
2018-11-21T13:54:43.390Z,27.53
2018-11-21T13:57:13.297Z,26.90
2018-11-21T13:59:43.196Z,24.70
2018-11-21T14:02:13.192Z,30.33
2018-11-21T14:04:43.085Z,25.97
2018-11-21T14:07:13.246Z,26.33
2018-11-21T14:09:43.142Z,24.93
2018-11-21T14:12:13.024Z,26.37
2018-11-21T14:14:42.917Z,23.50
2018-11-21T14:17:12.840Z,24.73
2018-11-21T14:19:42.721Z,26.40
2018-11-21T14:22:12.614Z,26.47
2018-11-21T14:24:42.527Z,25.47
2018-11-21T14:27:12.429Z,24.03
2018-11-21T14:29:42.331Z,26.87
2018-11-21T14:32:12.252Z,30.73
2018-11-21T14:34:42.166Z,25.80
2018-11-21T14:37:12.051Z,28.40
2018-11-21T14:39:41.950Z,29.53
2018-11-21T14:42:11.862Z,28.17
2018-11-21T14:44:42.074Z,28.33
2018-11-21T14:47:14.644Z,29.23
2018-11-21T14:49:46.830Z,26.30
2018-11-21T14:52:16.735Z,24.23
2018-11-21T14:54:46.672Z,27.90
2018-11-21T14:57:16.928Z,27.60
2018-11-21T14:59:46.866Z,34.23
2018-11-21T15:02:16.782Z,28.03
2018-11-21T15:04:46.668Z,36.07
2018-11-21T15:07:16.572Z,28.10
2018-11-21T15:09:46.545Z,27.93
2018-11-21T15:12:16.528Z,28.03
2018-11-21T15:14:46.747Z,27.83
2018-11-21T15:17:16.659Z,30.87
2018-11-21T15:19:46.622Z,26.23
2018-11-21T15:22:16.539Z,26.47
2018-11-21T15:24:46.434Z,28.63
2018-11-21T15:27:16.331Z,29.07
2018-11-21T15:29:46.339Z,25.07
2018-11-21T15:32:16.248Z,27.83
2018-11-21T15:34:46.120Z,25.10
2018-11-21T15:37:16.057Z,27.23
2018-11-21T15:39:45.940Z,28.57
2018-11-21T15:42:16.794Z,29.60
2018-11-21T15:44:46.683Z,27.70
2018-11-21T15:47:16.564Z,27.90
2018-11-21T15:49:46.453Z,27.67
2018-11-21T15:52:16.607Z,25.03
2018-11-21T15:54:46.815Z,25.87
2018-11-21T15:57:16.692Z,33.53
2018-11-21T15:59:46.642Z,26.13
2018-11-21T16:02:16.476Z,31.87
2018-11-21T16:04:48.096Z,30.57
2018-11-21T16:07:16.375Z,27.93
2018-11-21T16:09:47.187Z,29.60
2018-11-21T16:12:17.142Z,29.23
2018-11-21T16:14:47.062Z,29.47
2018-11-21T16:17:16.951Z,31.40
2018-11-21T16:19:46.867Z,31.37
2018-11-21T16:22:16.735Z,32.07
2018-11-21T16:24:46.615Z,32.87
2018-11-21T16:27:16.941Z,30.90
2018-11-21T16:29:46.928Z,29.10
2018-11-21T16:32:16.871Z,28.40
2018-11-21T16:34:46.759Z,31.13
2018-11-21T16:37:16.673Z,30.07
2018-11-21T16:39:46.555Z,33.30
2018-11-21T16:42:16.461Z,30.77
2018-11-21T16:44:46.395Z,29.27
2018-11-21T16:47:16.313Z,28.97
2018-11-21T16:49:46.248Z,30.60
2018-11-21T16:52:16.154Z,30.47
2018-11-21T16:54:46.018Z,31.30
2018-11-21T16:57:16.107Z,27.20
2018-11-21T16:59:45.999Z,28.50
2018-11-21T17:02:15.920Z,37.60
2018-11-21T17:04:45.811Z,29.80
2018-11-21T17:07:16.040Z,25.17
2018-11-21T17:09:46.316Z,26.53
2018-11-21T17:12:16.253Z,26.73
2018-11-21T17:14:46.130Z,24.27
2018-11-21T17:17:16.044Z,27.43
2018-11-21T17:19:46.045Z,29.37
2018-11-21T17:22:16.160Z,26.33
2018-11-21T17:24:46.091Z,26.77
2018-11-21T17:27:15.983Z,27.27
2018-11-21T17:29:53.543Z,35.13
2018-11-21T17:32:15.836Z,27.33
2018-11-21T17:34:45.740Z,26.77
2018-11-21T17:37:15.639Z,25.60
2018-11-21T17:39:45.556Z,23.63
2018-11-21T17:42:15.440Z,28.17
2018-11-21T17:44:45.359Z,34.87
2018-11-21T17:47:15.515Z,31.27
2018-11-21T17:52:15.301Z,35.30
2018-11-21T17:54:45.227Z,30.43
2018-11-21T17:57:15.172Z,28.40
2018-11-21T17:59:45.442Z,30.53
2018-11-21T18:02:15.349Z,31.53
2018-11-21T18:04:45.331Z,31.43
2018-11-21T18:07:15.259Z,36.60
2018-11-21T18:09:45.144Z,36.07
2018-11-21T18:12:15.228Z,32.47
2018-11-21T18:14:45.099Z,29.97
2018-11-21T18:17:15.359Z,28.47
2018-11-21T18:19:45.260Z,33.50
2018-11-21T18:22:15.278Z,34.93
2018-11-21T18:24:45.220Z,34.60
2018-11-21T18:27:15.092Z,34.70
2018-11-21T18:29:44.986Z,34.40
2018-11-21T18:32:14.885Z,34.53
2018-11-21T18:34:44.758Z,35.43
2018-11-21T18:37:14.766Z,35.07
2018-11-21T18:39:44.691Z,35.23
2018-11-21T18:42:14.811Z,34.63
2018-11-21T18:44:44.827Z,33.87
2018-11-21T18:47:14.730Z,43.63
2018-11-21T18:49:44.620Z,35.17
2018-11-21T18:52:14.490Z,36.60
2018-11-21T18:54:44.729Z,36.40
2018-11-21T18:57:34.614Z,38.23
2018-11-21T19:00:22.439Z,34.23
2018-11-21T19:02:52.316Z,34.27
2018-11-21T19:05:22.205Z,41.77
2018-11-21T19:07:52.240Z,38.10
2018-11-21T19:10:22.147Z,39.13
2018-11-21T19:12:52.050Z,35.87
2018-11-21T19:15:21.953Z,37.63
2018-11-21T19:17:51.914Z,37.23
2018-11-21T19:20:21.808Z,35.53
2018-11-21T19:22:51.932Z,37.30
2018-11-21T19:25:21.853Z,33.07
2018-11-21T19:27:51.756Z,35.27
2018-11-21T19:30:21.679Z,35.60
2018-11-21T19:32:51.883Z,39.47
2018-11-21T19:35:21.954Z,34.20
2018-11-21T19:37:51.848Z,34.57
2018-11-21T19:40:21.837Z,31.60
2018-11-21T19:42:51.749Z,31.20
2018-11-21T19:45:21.612Z,31.50
2018-11-21T19:47:51.575Z,32.07
2018-11-21T19:50:21.771Z,29.97
2018-11-21T19:52:51.964Z,33.57
2018-11-21T19:55:23.772Z,30.60
2018-11-21T19:57:53.656Z,33.20
2018-11-21T20:00:25.271Z,29.83
2018-11-21T20:02:55.178Z,30.00
2018-11-21T20:05:25.152Z,31.50
2018-11-21T20:07:55.394Z,40.73
2018-11-21T20:10:25.521Z,34.37
2018-11-21T20:12:55.433Z,27.97
2018-11-21T20:15:26.572Z,30.07
2018-11-21T20:17:58.349Z,29.43
2018-11-21T20:20:28.251Z,32.90
2018-11-21T20:22:58.139Z,30.13
2018-11-21T20:25:28.276Z,28.70
2018-11-21T20:27:58.209Z,32.73
2018-11-21T20:30:30.047Z,31.13
2018-11-21T20:32:59.968Z,33.60
2018-11-21T20:35:29.867Z,29.80
2018-11-21T20:37:59.782Z,31.13
2018-11-21T20:40:31.239Z,30.67
2018-11-21T20:43:01.179Z,30.17
2018-11-21T20:45:31.067Z,27.20
2018-11-21T20:48:01.802Z,30.97
2018-11-21T20:50:31.712Z,26.97
2018-11-21T20:53:09.459Z,27.67
2018-11-21T20:55:40.564Z,28.37
2018-11-21T20:58:10.460Z,27.03
2018-11-21T21:00:40.524Z,26.00
2018-11-21T21:03:10.432Z,29.30
2018-11-21T21:05:40.395Z,27.83
2018-11-21T21:08:11.219Z,26.07
2018-11-21T21:10:48.148Z,28.47
2018-11-21T21:13:18.055Z,29.77
2018-11-21T21:15:47.957Z,26.53
2018-11-21T21:18:17.851Z,27.63
2018-11-21T21:20:47.706Z,29.80
2018-11-21T21:23:18.224Z,27.77
2018-11-21T21:25:48.118Z,28.30
2018-11-21T21:28:18.049Z,29.13
2018-11-21T21:30:48.579Z,27.83
2018-11-21T21:33:18.667Z,26.23
2018-11-21T21:35:48.548Z,27.37
2018-11-21T21:38:18.434Z,28.90
2018-11-21T21:40:49.339Z,27.03
2018-11-21T21:43:20.455Z,25.30
2018-11-21T21:45:50.332Z,26.90
2018-11-21T21:48:20.223Z,25.70
2018-11-21T21:50:50.211Z,28.37
2018-11-21T21:53:20.094Z,26.73
2018-11-21T21:55:49.971Z,26.70
2018-11-21T21:58:19.843Z,29.10
2018-11-21T22:00:49.727Z,22.80
2018-11-21T22:03:19.599Z,24.03
2018-11-21T22:05:49.904Z,26.00
2018-11-21T22:08:19.797Z,23.73
2018-11-21T22:10:49.689Z,25.37
2018-11-21T22:13:19.756Z,24.50
2018-11-21T22:15:49.827Z,25.40
2018-11-21T22:18:19.710Z,25.20
2018-11-21T22:20:49.584Z,27.27
2018-11-21T22:23:19.448Z,25.00
2018-11-21T22:25:49.373Z,25.40
2018-11-21T22:28:19.523Z,24.93
2018-11-21T22:30:49.415Z,30.30
2018-11-21T22:33:19.291Z,28.53
2018-11-21T22:35:49.175Z,26.90
2018-11-21T22:38:19.068Z,23.27
2018-11-21T22:40:49.215Z,24.43
2018-11-21T22:43:19.107Z,25.83
2018-11-21T22:45:49.011Z,29.20
2018-11-21T22:48:19.207Z,27.47
2018-11-21T22:50:49.112Z,24.90
2018-11-21T22:53:19.020Z,23.27
2018-11-21T22:55:48.893Z,26.03
2018-11-21T22:58:18.793Z,24.77
2018-11-21T23:00:50.733Z,25.00
2018-11-21T23:03:21.822Z,23.10
2018-11-21T23:05:52.490Z,24.60
2018-11-21T23:08:22.760Z,24.50
2018-11-21T23:10:54.021Z,22.07
2018-11-21T23:13:23.914Z,26.53
2018-11-21T23:15:53.803Z,23.57
2018-11-21T23:18:23.751Z,23.87
2018-11-21T23:20:53.650Z,24.73
2018-11-21T23:23:23.539Z,23.23
2018-11-21T23:25:53.451Z,23.00
2018-11-21T23:28:23.839Z,23.90
2018-11-21T23:30:55.713Z,25.27
2018-11-21T23:33:25.645Z,23.53
2018-11-21T23:35:55.587Z,22.43
2018-11-21T23:38:25.511Z,23.67
2018-11-21T23:40:55.643Z,24.40
2018-11-21T23:43:26.408Z,26.13
2018-11-21T23:45:56.592Z,25.70
2018-11-21T23:48:27.509Z,27.03
2018-11-21T23:50:57.403Z,24.47
2018-11-21T23:53:27.319Z,25.17
2018-11-21T23:55:57.338Z,26.70
2018-11-21T23:58:27.248Z,27.00
